METAR Formatted Surface Weather Observation
Issued by NWS

Home | Current Version | Previous Version | Text Only | Print | Product List | Glossary On
Versions: 1 2
000
SAUS45 KPSR 070457
MTRFHU
METAR KFHU 070456Z AUTO 00000KT 10SM FEW080 OVC100 24/18 A3014 RMK
AO2 SLP142 T02390178 $



USA.gov is the U.S. government's official web portal to all federal, state and local government web resources and services.